Time;durP1;ratioP1;P1;durP2;ratioP2;P2;SDS_P1;SDS_P2;PMS_P1;PMS_P2;Temp;Humidity;BMP_temperature;BMP_pressure;BME280_temperature;BME280_humidity;BME280_pressure;Samples;Min_cycle;Max_cycle;Signal;HPM_P1;HPM_P2
2021/05/27 00:00:24;;;;;;;7.15;3.95;;;;;;;11.28;76.71;100727.59;1746421;79;22220;-84
2021/05/27 00:02:52;;;;;;;5.35;3.50;;;;;;;11.35;76.70;100726.41;1736615;78;21041;-83
2021/05/27 00:05:19;;;;;;;6.25;3.62;;;;;;;11.40;76.65;100726.96;1709819;82;21100;-84
2021/05/27 00:07:46;;;;;;;5.47;3.60;;;;;;;11.44;76.48;100725.28;1723392;82;21200;-84
2021/05/27 00:10:16;;;;;;;5.92;3.47;;;;;;;11.47;76.43;100726.68;1721216;82;21233;-84
2021/05/27 00:12:43;;;;;;;6.33;3.87;;;;;;;11.51;76.33;100725.88;1749267;80;21783;-84
2021/05/27 00:15:11;;;;;;;6.85;3.98;;;;;;;11.53;76.28;100724.59;1747838;80;21048;-84
2021/05/27 00:17:38;;;;;;;8.03;3.45;;;;;;;11.54;76.21;100729.88;1743796;80;21075;-84
2021/05/27 00:20:06;;;;;;;6.03;3.67;;;;;;;11.52;76.13;100723.69;1743904;79;21108;-84
2021/05/27 00:22:33;;;;;;;5.22;3.70;;;;;;;11.52;76.10;100717.09;1713788;83;21024;-84
2021/05/27 00:25:00;;;;;;;8.20;3.90;;;;;;;11.51;75.95;100715.77;1686247;83;22337;-84
2021/05/27 00:27:26;;;;;;;7.87;4.10;;;;;;;11.46;75.90;100716.54;1713815;82;21629;-84
2021/05/27 00:29:53;;;;;;;6.17;4.05;;;;;;;11.44;75.99;100714.30;1690428;83;21122;-83
2021/05/27 00:32:20;;;;;;;5.58;4.20;;;;;;;11.44;75.99;100714.30;1688525;83;21767;-84
2021/05/27 00:34:47;;;;;;;5.30;3.85;;;;;;;11.46;75.99;100717.86;1691938;84;21659;-83
2021/05/27 00:37:14;;;;;;;6.17;3.75;;;;;;;11.49;76.00;100710.46;1698587;82;21742;-83
2021/05/27 00:39:40;;;;;;;5.30;3.33;;;;;;;11.50;75.96;100706.07;1706861;83;21125;-84
2021/05/27 00:42:07;;;;;;;5.90;3.37;;;;;;;11.50;75.95;100713.98;1687912;83;21055;-83
2021/05/27 00:44:34;;;;;;;6.30;3.77;;;;;;;11.52;75.97;100717.53;1688787;83;21102;-84
2021/05/27 00:47:04;;;;;;;9.40;4.12;;;;;;;11.52;75.91;100726.32;1710008;83;21080;-83
2021/05/27 00:49:31;;;;;;;5.70;3.60;;;;;;;11.52;75.82;100725.00;1684844;82;21947;-83
2021/05/27 00:51:58;;;;;;;5.85;3.87;;;;;;;11.53;75.83;100719.33;1725049;81;21045;-83
2021/05/27 00:54:25;;;;;;;6.28;4.00;;;;;;;11.55;75.96;100723.77;1689964;82;21073;-84
2021/05/27 00:56:52;;;;;;;6.87;4.42;;;;;;;11.59;75.88;100728.23;1698103;83;21053;-83
2021/05/27 00:59:19;;;;;;;7.08;4.28;;;;;;;11.59;75.84;100726.91;1775756;79;21568;-84
2021/05/27 01:01:50;;;;;;;7.10;4.33;;;;;;;11.60;75.86;100724.75;1778671;80;21675;-84
2021/05/27 01:04:15;;;;;;;5.62;3.75;;;;;;;11.63;75.85;100727.87;1742249;81;21102;-84
2021/05/27 01:06:42;;;;;;;6.58;4.10;;;;;;;11.64;75.73;100718.68;1764064;80;21052;-84
2021/05/27 01:09:09;;;;;;;8.85;4.62;;;;;;;11.64;75.78;100722.63;1761337;80;21587;-83
2021/05/27 01:11:36;;;;;;;7.42;3.98;;;;;;;11.67;75.70;100719.16;1767490;80;21057;-84
2021/05/27 01:17:04;;;;;;;4.67;3.92;;;;;;;11.64;75.57;100713.84;1753116;81;21051;-83
2021/05/27 01:19:31;;;;;;;5.62;4.20;;;;;;;11.62;75.45;100712.92;1741342;81;21095;-83
2021/05/27 01:21:58;;;;;;;8.43;4.00;;;;;;;11.56;75.36;100708.83;1713667;81;21053;-82
2021/05/27 01:24:25;;;;;;;6.05;4.55;;;;;;;11.54;75.38;100710.10;1729488;82;21187;-82
2021/05/27 01:26:58;;;;;;;4.75;4.28;;;;;;;11.52;75.38;100703.91;1752061;81;21728;-83
2021/05/27 01:29:25;;;;;;;5.47;4.12;;;;;;;11.52;75.35;100709.19;1745376;80;21020;-83
2021/05/27 01:31:51;;;;;;;5.03;4.17;;;;;;;11.48;75.33;100705.59;1748795;80;21060;-83
2021/05/27 01:34:18;;;;;;;6.22;4.08;;;;;;;11.47;75.40;100710.42;1745875;79;21105;-83
2021/05/27 01:36:46;;;;;;;7.12;3.87;;;;;;;11.46;75.32;100714.34;1750924;80;21068;-83
2021/05/27 01:39:13;;;;;;;5.20;4.45;;;;;;;11.46;75.41;100718.30;1717838;82;21671;-83
2021/05/27 01:41:40;;;;;;;6.47;4.75;;;;;;;11.49;75.41;100714.42;1696504;83;21045;-83
2021/05/27 01:44:07;;;;;;;8.23;5.45;;;;;;;11.51;75.35;100713.14;1715520;82;21103;-83
2021/05/27 01:46:38;;;;;;;6.95;4.87;;;;;;;11.50;75.25;100716.61;1767911;80;21104;-82
2021/05/27 01:49:05;;;;;;;8.43;5.45;;;;;;;11.48;75.26;100711.30;1766258;80;21176;-83
2021/05/27 01:51:32;;;;;;;7.83;5.37;;;;;;;11.46;75.21;100705.12;1752392;81;22300;-83
2021/05/27 01:53:59;;;;;;;6.28;4.65;;;;;;;11.44;75.09;100709.47;1761575;80;21631;-83
2021/05/27 01:56:26;;;;;;;5.67;4.78;;;;;;;11.40;74.92;100708.52;1760936;80;21093;-82
2021/05/27 01:58:52;;;;;;;5.62;4.65;;;;;;;11.38;75.03;100710.67;1746498;80;21622;-82
2021/05/27 02:01:22;;;;;;;6.12;5.12;;;;;;;11.37;75.08;100709.76;1718130;81;21100;-82
2021/05/27 02:03:49;;;;;;;6.20;5.20;;;;;;;11.38;75.13;100711.55;1753042;81;21686;-83
2021/05/27 02:06:16;;;;;;;6.30;5.25;;;;;;;11.35;74.99;100718.06;1756818;81;21101;-82
2021/05/27 02:09:07;;;;;;;6.00;5.40;;;;;;;11.31;74.93;100716.22;1757818;80;21592;-82
2021/05/27 02:11:11;;;;;;;8.38;6.15;;;;;;;11.28;74.92;100718.37;1755337;81;21534;-82
2021/05/27 02:13:47;;;;;;;9.23;5.62;;;;;;;11.29;74.97;100720.58;1759570;80;21097;-82
2021/05/27 02:16:14;;;;;;;11.97;5.85;;;;;;;11.30;75.05;100713.15;1759039;80;21745;-82
2021/05/27 02:18:41;;;;;;;6.30;5.12;;;;;;;11.29;74.94;100717.50;1755969;80;21052;-82
2021/05/27 02:21:09;;;;;;;7.30;5.65;;;;;;;11.27;74.85;100713.95;1769014;80;21582;-82
2021/05/27 02:23:39;;;;;;;7.08;5.87;;;;;;;11.26;74.88;100713.91;1760855;80;21771;-82
2021/05/27 02:26:06;;;;;;;6.83;5.35;;;;;;;11.26;74.77;100709.95;1752629;81;21094;-82
2021/05/27 02:28:36;;;;;;;5.58;5.08;;;;;;;11.22;74.77;100707.72;1772611;80;21168;-82
2021/05/27 02:31:09;;;;;;;5.95;5.33;;;;;;;11.21;74.80;100705.92;1749605;80;21142;-82
2021/05/27 02:33:46;;;;;;;7.70;5.97;;;;;;;11.17;74.66;100708.03;1727398;81;21104;-82
2021/05/27 02:36:20;;;;;;;7.80;5.97;;;;;;;11.14;74.66;100704.44;1695801;83;21633;-82
2021/05/27 02:38:48;;;;;;;7.70;5.40;;;;;;;11.09;74.71;100706.95;1721375;81;21089;-82
2021/05/27 02:41:21;;;;;;;7.03;5.58;;;;;;;11.07;74.85;100710.90;1704697;82;21144;-82
2021/05/27 02:44:02;;;;;;;7.30;5.97;;;;;;;11.05;74.87;100706.43;1701972;83;21098;-82
2021/05/27 02:46:30;;;;;;;9.23;6.35;;;;;;;11.04;75.02;100705.55;1707010;82;21596;-83
2021/05/27 02:48:57;;;;;;;8.43;6.30;;;;;;;11.09;75.14;100701.69;1700809;82;21244;-83
2021/05/27 02:51:27;;;;;;;6.53;5.65;;;;;;;11.13;75.05;100706.59;1696377;83;21124;-83
2021/05/27 02:53:58;;;;;;;7.00;5.72;;;;;;;11.15;75.03;100706.20;1753532;80;22489;-83
2021/05/27 02:56:25;;;;;;;8.98;5.70;;;;;;;11.14;74.97;100698.73;1760079;80;21073;-82
2021/05/27 02:58:52;;;;;;;6.25;5.62;;;;;;;11.18;75.04;100697.94;1768244;80;21136;-83
2021/05/27 03:01:19;;;;;;;9.08;6.30;;;;;;;11.22;74.95;100697.58;1753328;80;21618;-83
2021/05/27 03:03:46;;;;;;;10.03;6.45;;;;;;;11.26;74.94;100702.05;1767793;80;21069;-83
2021/05/27 03:06:12;;;;;;;9.05;6.80;;;;;;;11.33;74.88;100712.31;1766783;80;21737;-83
2021/05/27 03:08:44;;;;;;;6.25;5.65;;;;;;;11.35;74.96;100710.59;1758715;80;21073;-83
2021/05/27 03:11:24;;;;;;;8.00;6.30;;;;;;;11.40;74.88;100711.16;1755195;80;21025;-83
2021/05/27 03:13:51;;;;;;;9.55;6.22;;;;;;;11.53;75.07;100707.03;1754209;79;21752;-83
2021/05/27 03:16:18;;;;;;;7.87;6.53;;;;;;;11.75;74.88;100708.34;1752094;81;21089;-82
2021/05/27 03:18:45;;;;;;;7.37;6.42;;;;;;;11.97;74.78;100710.09;1755531;80;21781;-83
2021/05/27 03:21:12;;;;;;;8.43;7.03;;;;;;;12.15;74.34;100709.56;1751171;81;21335;-83
2021/05/27 03:23:40;;;;;;;11.68;6.55;;;;;;;12.28;74.11;100708.03;1759955;80;21555;-83
2021/05/27 03:26:07;;;;;;;8.08;6.12;;;;;;;12.41;73.92;100707.38;1739017;81;21067;-82
2021/05/27 03:28:34;;;;;;;7.62;6.50;;;;;;;12.69;73.86;100706.06;1748301;81;21096;-84
2021/05/27 03:31:00;;;;;;;7.67;6.20;;;;;;;12.94;73.36;100707.31;1766282;80;21092;-84
2021/05/27 03:33:27;;;;;;;6.97;5.58;;;;;;;13.29;73.09;100702.95;1758216;80;21069;-84
2021/05/27 03:35:54;;;;;;;6.67;5.85;;;;;;;13.86;73.88;100695.72;1763412;80;21076;-84
2021/05/27 03:38:21;;;;;;;7.37;6.00;;;;;;;15.24;74.84;100690.66;1754300;81;20998;-84
2021/05/27 03:40:48;;;;;;;6.42;5.83;;;;;;;17.08;74.71;100685.17;1753798;81;21037;-84
2021/05/27 03:43:15;;;;;;;6.40;5.50;;;;;;;19.00;73.15;100682.59;1766152;80;21741;-85
2021/05/27 03:45:42;;;;;;;5.92;5.33;;;;;;;20.70;70.41;100679.80;1749210;80;21047;-85
2021/05/27 03:48:09;;;;;;;5.87;5.30;;;;;;;22.08;67.80;100673.84;1756848;80;21092;-85
2021/05/27 03:50:36;;;;;;;6.35;5.78;;;;;;;23.22;65.27;100669.12;1746762;80;21791;-84
2021/05/27 03:53:05;;;;;;;6.53;5.92;;;;;;;24.13;62.80;100673.09;1758140;80;21144;-84
2021/05/27 03:55:31;;;;;;;5.97;5.37;;;;;;;25.05;61.16;100672.25;1766356;80;21751;-84
2021/05/27 03:57:59;;;;;;;6.03;5.42;;;;;;;26.01;59.92;100670.40;1760858;80;21160;-85
2021/05/27 04:00:43;;;;;;;6.28;5.67;;;;;;;27.10;58.11;100670.30;1759371;80;21127;-85
2021/05/27 04:03:10;;;;;;;6.53;5.85;;;;;;;28.14;56.11;100675.38;1729514;80;21562;-94
2021/05/27 04:09:05;;;;;;;7.12;6.47;;;;;;;25.14;50.70;100683.55;1759629;80;21970;-88
2021/05/27 04:11:28;;;;;;;6.80;5.75;;;;;;;22.79;50.67;100685.04;1755781;80;21109;-87
2021/05/27 04:13:55;;;;;;;8.70;6.80;;;;;;;21.22;51.58;100685.05;1711842;81;21064;-86
2021/05/27 04:16:21;;;;;;;7.22;6.53;;;;;;;20.19;52.40;100691.28;1692226;82;21103;-84
2021/05/27 04:18:49;;;;;;;7.90;7.15;;;;;;;19.38;53.04;100683.92;1725003;81;21155;-89
2021/05/27 04:25:20;;;;;;;10.68;7.22;;;;;;;17.93;54.09;100688.36;1647536;84;21145;-91
2021/05/27 04:27:50;;;;;;;8.73;7.83;;;;;;;17.14;55.16;100695.78;1571436;90;21213;-88
2021/05/27 04:30:19;;;;;;;8.45;7.65;;;;;;;16.57;55.75;100699.81;1534771;90;21193;-85
2021/05/27 04:35:32;;;;;;;8.85;7.58;;;;;;;15.84;57.02;100703.27;1553958;90;21872;-84
2021/05/27 04:38:01;;;;;;;8.95;7.83;;;;;;;15.48;57.55;100701.79;1584412;90;21168;-83
2021/05/27 04:40:33;;;;;;;9.50;8.55;;;;;;;15.16;58.11;100697.25;1556966;90;21215;-91
2021/05/27 04:43:00;;;;;;;10.78;9.68;;;;;;;14.90;58.71;100703.72;1569318;89;21768;-86
2021/05/27 04:45:27;;;;;;;10.10;9.08;;;;;;;14.66;59.21;100707.08;1553930;90;21852;-87
2021/05/27 04:47:54;;;;;;;9.60;8.60;;;;;;;14.44;59.64;100712.60;1563939;90;21771;-91
2021/05/27 04:50:21;;;;;;;10.15;9.18;;;;;;;14.28;60.17;100713.33;1577953;90;21188;-88
2021/05/27 04:52:49;;;;;;;10.00;8.88;;;;;;;14.07;60.59;100716.67;1557861;90;21165;-91
2021/05/27 04:55:18;;;;;;;10.85;9.75;;;;;;;13.94;61.10;100723.59;1569211;89;21692;-88
2021/05/27 04:57:48;;;;;;;11.50;10.20;;;;;;;13.80;61.59;100723.00;1579535;89;21112;-93
2021/05/27 05:04:11;;;;;;;12.70;10.10;;;;;;;13.56;62.33;100734.17;1418885;99;21345;-91
2021/05/27 05:07:17;;;;;;;11.48;10.10;;;;;;;13.43;63.14;100728.72;1374114;100;21235;-90
2021/05/27 05:09:56;;;;;;;10.45;9.38;;;;;;;13.28;63.50;100730.25;1341153;104;22612;-90
2021/05/27 05:12:23;;;;;;;11.05;9.13;;;;;;;13.17;64.07;100726.13;1339292;104;21247;-90
2021/05/27 05:14:50;;;;;;;9.78;8.78;;;;;;;13.08;64.43;100729.08;1340794;105;21400;-90
2021/05/27 05:17:17;;;;;;;9.53;8.55;;;;;;;13.00;64.75;100732.48;1338470;105;21490;-90
2021/05/27 05:19:44;;;;;;;10.43;8.80;;;;;;;12.94;65.06;100732.85;1337802;105;21311;-92
2021/05/27 05:22:13;;;;;;;10.88;8.18;;;;;;;12.88;65.32;100735.41;1337819;104;21240;-92
2021/05/27 05:24:40;;;;;;;9.63;8.10;;;;;;;12.82;65.75;100743.69;1341145;105;21237;-89
2021/05/27 05:27:07;;;;;;;10.35;9.13;;;;;;;12.79;66.15;100745.39;1340404;104;22504;-89
2021/05/27 05:29:34;;;;;;;11.83;9.08;;;;;;;12.74;66.41;100748.38;1341040;105;21268;-88
2021/05/27 05:32:01;;;;;;;11.48;9.03;;;;;;;12.66;66.56;100739.02;1331633;105;21771;-88
2021/05/27 05:34:30;;;;;;;11.35;8.93;;;;;;;12.62;66.73;100734.55;1327687;106;21281;-88
2021/05/27 05:36:57;;;;;;;14.00;10.53;;;;;;;12.61;66.95;100729.71;1329136;106;21240;-89
2021/05/27 05:39:23;;;;;;;9.48;8.48;;;;;;;12.60;67.18;100738.92;1344940;104;21919;-88
2021/05/27 05:41:50;;;;;;;9.75;8.65;;;;;;;12.54;67.33;100744.11;1386869;101;21746;-89
2021/05/27 05:44:18;;;;;;;12.53;9.20;;;;;;;12.50;67.73;100746.22;1445740;94;21162;-88
2021/05/27 05:46:45;;;;;;;11.35;9.40;;;;;;;12.50;68.02;100756.37;1578334;86;21278;-88
2021/05/27 05:49:12;;;;;;;15.30;10.70;;;;;;;12.50;68.25;100755.45;1630982;86;21092;-88
2021/05/27 05:51:39;;;;;;;13.03;10.18;;;;;;;12.50;68.44;100752.41;1635300;85;21760;-88
2021/05/27 05:54:06;;;;;;;11.35;10.20;;;;;;;12.53;68.71;100748.92;1665693;84;21692;-87
2021/05/27 05:56:33;;;;;;;9.75;8.75;;;;;;;12.53;68.85;100748.48;1667532;83;21118;-88
2021/05/27 05:59:00;;;;;;;9.78;8.78;;;;;;;12.56;68.80;100736.66;1680633;84;21083;-88
2021/05/27 06:01:27;;;;;;;11.63;9.88;;;;;;;12.59;68.84;100743.33;1676207;83;21007;-88
2021/05/27 06:03:54;;;;;;;14.93;9.15;;;;;;;12.60;68.84;100742.45;1641770;86;21733;-88
2021/05/27 06:06:21;;;;;;;12.47;9.13;;;;;;;12.60;68.87;100742.88;1628240;86;21144;-88
2021/05/27 06:08:49;;;;;;;12.10;9.80;;;;;;;12.62;69.08;100741.16;1635171;86;21080;-88
2021/05/27 06:11:16;;;;;;;13.00;9.43;;;;;;;12.63;69.21;100737.23;1617056;85;22015;-88
2021/05/27 06:13:43;;;;;;;12.10;9.45;;;;;;;12.66;69.17;100736.38;1638014;86;21126;-88
2021/05/27 06:16:12;;;;;;;12.05;10.32;;;;;;;12.70;69.39;100731.59;1654678;82;21408;-88
2021/05/27 06:18:39;;;;;;;12.43;9.70;;;;;;;12.74;69.33;100736.49;1711340;82;21172;-88
2021/05/27 06:21:06;;;;;;;13.13;9.98;;;;;;;12.68;69.10;100730.69;1723504;81;21107;-88
2021/05/27 06:23:31;;;;;;;12.25;10.95;;;;;;;12.64;69.35;100729.74;1741470;81;21116;-88
2021/05/27 06:25:58;;;;;;;12.78;11.08;;;;;;;12.56;69.49;100727.86;1751899;80;20937;-88
2021/05/27 06:28:24;;;;;;;15.18;10.82;;;;;;;12.49;69.78;100730.81;1762675;80;21143;-88
2021/05/27 06:30:51;;;;;;;12.10;10.85;;;;;;;12.57;70.14;100729.63;1746919;80;21036;-87
2021/05/27 06:33:18;;;;;;;13.10;11.45;;;;;;;12.69;70.34;100736.84;1728432;81;21131;-87
2021/05/27 06:35:44;;;;;;;12.82;9.65;;;;;;;12.76;70.24;100742.28;1762763;80;21108;-87
2021/05/27 06:38:13;;;;;;;18.67;10.45;;;;;;;12.83;70.40;100748.09;1728663;80;21645;-88
2021/05/27 06:40:39;;;;;;;9.30;8.28;;;;;;;12.91;70.38;100736.75;1763819;80;21111;-88
2021/05/27 06:43:07;;;;;;;11.53;10.25;;;;;;;13.01;70.25;100743.97;1739526;81;21103;-88
2021/05/27 06:45:34;;;;;;;15.35;11.95;;;;;;;13.07;70.23;100751.10;1754311;80;21611;-88
2021/05/27 06:48:01;;;;;;;13.43;10.10;;;;;;;13.18;70.51;100757.44;1757035;80;21057;-88
2021/05/27 06:50:35;;;;;;;10.82;9.38;;;;;;;13.32;70.55;100756.33;1746407;80;21033;-88
2021/05/27 06:53:08;;;;;;;10.35;8.85;;;;;;;13.48;70.42;100769.34;1756462;80;21129;-89
2021/05/27 06:55:38;;;;;;;14.35;12.25;;;;;;;13.59;70.33;100773.89;1766392;80;21598;-88
2021/05/27 06:58:05;;;;;;;14.10;11.40;;;;;;;13.66;70.33;100773.96;1770844;80;21119;-87
2021/05/27 07:00:31;;;;;;;14.03;8.20;;;;;;;13.77;70.55;100776.31;1762754;80;21155;-88
2021/05/27 07:03:00;;;;;;;7.05;6.10;;;;;;;13.90;70.47;100775.58;1752337;81;21626;-89
2021/05/27 07:05:28;;;;;;;10.35;8.20;;;;;;;14.06;70.27;100784.60;1756833;80;21558;-88
2021/05/27 07:07:56;;;;;;;11.85;8.45;;;;;;;14.16;70.30;100781.17;1766995;79;21085;-88
2021/05/27 07:10:22;;;;;;;9.98;8.75;;;;;;;14.29;70.33;100782.64;1750688;80;21973;-88
2021/05/27 07:12:52;;;;;;;8.90;8.00;;;;;;;14.46;70.26;100782.80;1744396;79;21190;-88
2021/05/27 07:15:20;;;;;;;8.98;7.92;;;;;;;14.62;70.29;100783.85;1753528;79;21127;-88
2021/05/27 07:17:48;;;;;;;11.75;7.78;;;;;;;14.87;70.28;100786.30;1759466;80;21091;-88
2021/05/27 07:20:15;;;;;;;14.75;8.90;;;;;;;15.13;69.94;100783.84;1761030;80;21587;-89
2021/05/27 07:22:41;;;;;;;39.85;24.77;;;;;;;15.43;69.74;100786.20;1749683;81;21112;-88
2021/05/27 07:25:09;;;;;;;15.43;11.30;;;;;;;15.71;69.44;100784.58;1748199;80;21170;-88
2021/05/27 07:27:36;;;;;;;9.18;7.92;;;;;;;16.05;69.45;100788.75;1737474;79;21543;-88
2021/05/27 07:30:03;;;;;;;6.50;5.85;;;;;;;16.43;69.30;100782.19;1756080;80;21101;-88
2021/05/27 07:32:30;;;;;;;38.38;25.48;;;;;;;16.81;68.88;100778.66;1753721;79;21116;-89
2021/05/27 07:34:56;;;;;;;46.40;28.40;;;;;;;17.05;67.65;100791.54;1764936;79;21073;-88
2021/05/27 07:37:23;;;;;;;27.48;17.82;;;;;;;17.22;67.27;100780.42;1767370;80;21145;-89
2021/05/27 07:39:49;;;;;;;44.95;26.85;;;;;;;17.35;66.79;100785.73;1764256;79;21120;-88
2021/05/27 07:42:16;;;;;;;16.17;10.98;;;;;;;17.62;66.68;100783.42;1762818;80;21045;-89
2021/05/27 07:44:42;;;;;;;21.77;14.03;;;;;;;17.86;65.84;100785.14;1759688;80;21105;-88
2021/05/27 07:47:09;;;;;;;39.18;23.18;;;;;;;18.05;65.48;100783.27;1758777;79;21100;-89
2021/05/27 07:49:35;;;;;;;14.65;9.93;;;;;;;18.26;64.94;100787.16;1761787;80;21078;-89
2021/05/27 07:52:02;;;;;;;101.07;52.62;;;;;;;18.47;64.67;100786.59;1762015;79;21064;-89
2021/05/27 07:54:28;;;;;;;88.47;48.30;;;;;;;18.64;64.10;100790.47;1746964;79;21293;-89
2021/05/27 07:56:55;;;;;;;60.85;36.38;;;;;;;18.65;63.49;100791.76;1756705;80;21175;-89
2021/05/27 07:59:21;;;;;;;92.75;50.15;;;;;;;18.52;63.00;100791.41;1725826;81;21159;-89
2021/05/27 08:01:48;;;;;;;46.53;26.20;;;;;;;18.37;62.79;100799.06;1753738;81;21128;-89
2021/05/27 08:04:15;;;;;;;62.53;32.55;;;;;;;18.25;62.63;100803.16;1760567;80;21053;-89
2021/05/27 08:06:42;;;;;;;40.40;22.65;;;;;;;18.13;62.55;100804.11;1759486;79;21784;-89
2021/05/27 08:09:10;;;;;;;37.42;19.70;;;;;;;17.97;62.41;100803.29;1754534;80;21085;-89
2021/05/27 08:11:43;;;;;;;67.47;32.42;;;;;;;17.87;62.50;100809.56;1751392;80;21040;-89
2021/05/27 08:14:11;;;;;;;57.90;28.38;;;;;;;17.67;62.41;100807.80;1762662;80;21685;-89
2021/05/27 08:16:38;;;;;;;85.87;42.27;;;;;;;17.37;62.29;100810.11;1729582;80;21381;-89
2021/05/27 08:19:05;;;;;;;173.25;75.10;;;;;;;17.07;62.27;100812.37;1754033;79;22551;-89
2021/05/27 08:21:33;;;;;;;96.12;42.58;;;;;;;16.83;62.65;100819.45;1754979;79;21098;-89
2021/05/27 08:24:00;;;;;;;48.75;22.87;;;;;;;16.80;63.20;100824.75;1751277;81;22136;-89
2021/05/27 08:26:30;;;;;;;36.77;25.68;;;;;;;16.84;63.25;100829.21;1749852;80;21135;-89
2021/05/27 08:28:56;;;;;;;22.15;17.57;;;;;;;16.95;63.39;100832.30;1746139;80;21082;-89
2021/05/27 08:31:23;;;;;;;38.78;29.92;;;;;;;17.00;63.24;100834.52;1762169;79;22494;-90
2021/05/27 08:33:50;;;;;;;16.50;14.28;;;;;;;17.02;63.07;100836.73;1761621;79;21582;-89
2021/05/27 08:36:17;;;;;;;10.25;8.30;;;;;;;17.03;62.89;100839.86;1756774;79;21105;-89
2021/05/27 08:38:44;;;;;;;45.88;40.63;;;;;;;17.13;62.78;100844.72;1752695;80;21107;-89
2021/05/27 08:41:11;;;;;;;12.45;11.35;;;;;;;17.23;62.77;100842.06;1747874;81;21256;-89
2021/05/27 08:43:38;;;;;;;6.85;6.20;;;;;;;17.35;62.71;100846.93;1734838;80;22326;-90
2021/05/27 08:46:06;;;;;;;3.87;3.40;;;;;;;17.52;62.76;100839.80;1765416;79;21096;-89
2021/05/27 08:48:33;;;;;;;3.83;3.45;;;;;;;17.77;62.70;100845.05;1753979;80;21629;-89
2021/05/27 08:51:00;;;;;;;3.55;3.25;;;;;;;18.00;62.15;100841.00;1752819;79;21097;-90
2021/05/27 08:53:27;;;;;;;2.75;2.55;;;;;;;18.25;61.87;100833.80;1746130;79;21005;-90
2021/05/27 08:55:54;;;;;;;2.08;1.87;;;;;;;18.54;61.74;100842.05;1759126;80;22470;-90
2021/05/27 08:58:22;;;;;;;2.42;1.80;;;;;;;18.80;61.47;100838.79;1756669;80;21481;-90
2021/05/27 09:00:49;;;;;;;2.58;1.90;;;;;;;19.07;60.85;100847.49;1767464;79;21132;-88
2021/05/27 09:03:18;;;;;;;1.85;1.65;;;;;;;19.28;60.39;100838.86;1766441;79;21187;-88
2021/05/27 09:05:44;;;;;;;1.32;1.22;;;;;;;19.56;60.12;100843.47;1766300;79;21117;-89
2021/05/27 09:08:34;;;;;;;1.40;1.30;;;;;;;19.85;59.45;100843.16;1748693;80;21832;-88
2021/05/27 09:11:02;;;;;;;2.02;1.35;;;;;;;20.16;59.05;100846.34;1756464;80;21076;-88
2021/05/27 09:13:29;;;;;;;1.85;1.65;;;;;;;20.35;58.36;100838.09;1764273;79;21025;-88
2021/05/27 09:16:08;;;;;;;1.45;1.35;;;;;;;20.30;58.01;100842.14;1753516;79;21092;-87
2021/05/27 09:18:40;;;;;;;1.85;1.70;;;;;;;20.25;57.57;100851.13;1753678;81;21085;-88
2021/05/27 09:21:10;;;;;;;2.40;1.75;;;;;;;20.16;57.23;100849.48;1761911;80;21876;-88
2021/05/27 09:23:40;;;;;;;2.22;1.60;;;;;;;20.07;56.94;100851.81;1748083;79;21083;-88
2021/05/27 09:26:13;;;;;;;3.58;1.85;;;;;;;20.02;56.79;100854.11;1757405;80;22323;-88
2021/05/27 09:28:40;;;;;;;13.28;2.75;;;;;;;20.05;56.56;100856.75;1758187;80;21077;-90
2021/05/27 09:31:10;;;;;;;6.92;2.60;;;;;;;20.05;56.16;100860.76;1752881;79;21117;-88
2021/05/27 09:33:45;;;;;;;2.00;1.80;;;;;;;19.95;56.32;100860.87;1752295;80;22448;-88
2021/05/27 09:36:18;;;;;;;2.22;1.80;;;;;;;19.95;56.09;100859.53;1766801;79;21632;-88
2021/05/27 09:38:47;;;;;;;2.70;2.12;;;;;;;19.96;56.03;100857.27;1759946;80;21124;-88
2021/05/27 09:41:28;;;;;;;3.95;2.25;;;;;;;19.89;55.45;100860.04;1753428;81;21105;-88
2021/05/27 09:43:58;;;;;;;5.40;2.42;;;;;;;19.73;55.36;100864.69;1761149;79;21089;-88
2021/05/27 09:46:27;;;;;;;4.72;2.30;;;;;;;19.71;55.93;100869.12;1766039;80;21922;-88
2021/05/27 09:49:08;;;;;;;1.82;1.62;;;;;;;19.83;55.93;100865.00;1760486;79;21122;-88
2021/05/27 09:51:36;;;;;;;2.30;1.57;;;;;;;20.00;55.98;100868.81;1750948;80;21139;-88
2021/05/27 09:54:03;;;;;;;3.00;1.80;;;;;;;20.12;55.30;100869.11;1762293;79;21137;-88
2021/05/27 09:56:38;;;;;;;6.60;1.85;;;;;;;20.13;54.98;100870.43;1753509;80;20958;-88
2021/05/27 09:59:05;;;;;;;3.05;1.57;;;;;;;20.03;54.44;100872.80;1766015;79;22306;-88
2021/05/27 10:01:32;;;;;;;2.45;1.45;;;;;;;19.87;53.99;100867.19;1750348;79;21160;-88
2021/05/27 10:04:16;;;;;;;3.15;1.55;;;;;;;19.93;54.50;100878.70;1751971;81;21140;-88
2021/05/27 10:06:43;;;;;;;8.85;2.55;;;;;;;20.14;54.28;100874.88;1752688;80;21052;-88
2021/05/27 10:09:10;;;;;;;3.45;1.80;;;;;;;20.04;53.67;100877.22;1757830;80;21314;-88
2021/05/27 10:11:38;;;;;;;7.30;2.22;;;;;;;19.82;53.43;100876.61;1738687;80;21737;-87
2021/05/27 10:14:07;;;;;;;3.95;1.75;;;;;;;19.58;53.37;100877.25;1765635;79;21164;-87
2021/05/27 10:16:38;;;;;;;2.65;1.95;;;;;;;19.36;53.17;100882.37;1753159;79;21080;-88
2021/05/27 10:19:06;;;;;;;10.68;2.80;;;;;;;19.13;53.41;100882.58;1755635;79;22288;-87
2021/05/27 10:21:33;;;;;;;3.65;1.77;;;;;;;18.95;53.43;100891.13;1756294;80;21101;-88
2021/05/27 10:24:00;;;;;;;2.40;1.60;;;;;;;18.88;53.70;100894.73;1759137;80;21819;-87
2021/05/27 10:26:27;;;;;;;2.75;1.87;;;;;;;18.74;53.55;100898.80;1771352;79;21096;-88
2021/05/27 10:28:54;;;;;;;24.32;2.60;;;;;;;18.56;53.89;100894.48;1770169;79;21094;-87
2021/05/27 10:31:23;;;;;;;6.42;2.12;;;;;;;18.45;54.17;100891.88;1762173;80;21089;-87
2021/05/27 10:33:51;;;;;;;3.65;1.70;;;;;;;18.38;54.39;100890.13;1738091;80;21073;-88
2021/05/27 10:36:18;;;;;;;2.80;1.80;;;;;;;18.29;54.17;100898.62;1765481;80;21747;-90
2021/05/27 10:38:50;;;;;;;6.12;1.87;;;;;;;18.14;53.99;100896.90;1758731;79;21670;-91
2021/05/27 10:41:31;;;;;;;9.88;2.30;;;;;;;18.04;54.16;100894.27;1763659;80;21010;-88
2021/05/27 10:44:07;;;;;;;32.58;3.72;;;;;;;17.97;54.05;100896.50;1773960;78;21140;-88
2021/05/27 10:46:45;;;;;;;7.40;3.50;;;;;;;17.93;54.39;100897.41;1775899;79;21049;-89
2021/05/27 10:49:13;;;;;;;5.78;3.33;;;;;;;17.89;54.46;100874.34;1756113;80;21786;-89
2021/05/27 10:54:14;;;;;;;3.45;2.05;;;;;;;18.11;54.46;100895.56;1754632;81;21089;-89
2021/05/27 10:56:44;;;;;;;2.27;1.75;;;;;;;18.23;54.48;100901.73;1752590;81;21488;-88
2021/05/27 10:59:17;;;;;;;3.02;1.60;;;;;;;18.33;54.46;100897.70;1754817;81;21085;-88
2021/05/27 11:01:49;;;;;;;3.00;1.67;;;;;;;18.34;54.22;100907.45;1754957;80;21877;-88
2021/05/27 11:04:34;;;;;;;2.45;1.82;;;;;;;18.31;54.01;100910.16;1766161;80;21077;-88
2021/05/27 11:07:20;;;;;;;3.75;1.60;;;;;;;18.38;53.96;100911.45;1745859;80;21159;-88
2021/05/27 11:09:51;;;;;;;2.12;1.67;;;;;;;18.67;54.22;100904.19;1737129;80;21060;-87
2021/05/27 11:12:26;;;;;;;5.85;1.70;;;;;;;19.05;53.94;100906.66;1747261;80;21036;-88
2021/05/27 11:15:04;;;;;;;3.10;1.72;;;;;;;19.23;53.53;100898.47;1747688;80;22544;-88
2021/05/27 11:17:30;;;;;;;13.13;2.17;;;;;;;19.40;53.51;100909.00;1750426;81;21113;-88
2021/05/27 11:20:03;;;;;;;8.20;1.90;;;;;;;19.51;52.71;100916.92;1767891;79;21093;-89
2021/05/27 11:25:27;;;;;;;4.40;1.20;;;;;;;19.65;51.44;100919.91;1759845;80;21065;-88
2021/05/27 11:28:04;;;;;;;1.30;0.88;;;;;;;20.02;51.10;100919.56;1750968;79;21749;-88
2021/05/27 11:30:40;;;;;;;4.55;0.90;;;;;;;20.20;50.72;100920.23;1759031;80;21100;-90
2021/05/27 11:33:28;;;;;;;1.20;0.80;;;;;;;20.40;50.25;100913.73;1759649;79;21058;-89
2021/05/27 11:35:55;;;;;;;1.30;0.68;;;;;;;20.42;49.55;100907.05;1755838;80;21602;-89
2021/05/27 11:38:30;;;;;;;3.22;1.02;;;;;;;20.38;49.57;100907.10;1753761;79;21068;-89
2021/05/27 11:41:12;;;;;;;1.45;1.00;;;;;;;20.41;49.35;100907.50;1756196;80;22408;-89
2021/05/27 11:43:44;;;;;;;1.65;1.20;;;;;;;20.44;49.09;100911.91;1760926;80;21132;-89
2021/05/27 11:46:21;;;;;;;5.28;1.27;;;;;;;20.35;48.95;100909.80;1768098;79;21064;-89
2021/05/27 11:51:33;;;;;;;1.40;1.05;;;;;;;20.38;49.22;100916.89;1750834;81;21026;-90
2021/05/27 11:54:06;;;;;;;2.55;1.27;;;;;;;20.63;49.21;100917.50;1764261;79;22452;-89